Racecast

None

6000m · Girls · Compiled

139 runners from 1 division

These divisions were run separately. This is how their times compare, not how they finished — the places and scores below were never contested.

View full meet →

Team scores

Place Team Points 12345 67
1 Arkansas (AR) 25 1 3 5 6 10 18 30
2 Rice (TX) 118 4 16 19 36 43 50 92
3 Baylor (TX) 122 11 14 21 27 49
4 Texas A&M (TX) 135 7 8 9 52 59 67 70
5 Texas (TX) 151 17 22 31 40 41 45 51
6 Lamar (TX) 151 15 20 29 39 48 64
7 SMU (TX) 166 2 13 23 62 66
8 North Texas (TX) 168 12 25 32 34 65 85 86
9 Stephen F. Austin (TX) 173 26 28 37 38 44 46 56
10 UTSA (TX) 273 24 33 68 71 77 78
11 McNeese State (TX) 276 35 42 55 63 81
12 Sam Houston St. (TX) 300 47 57 60 61 75
13 Houston Baptist (TX) 360 53 72 73 80 82 88 90
14 Texas A&M-CC (TX) 366 54 69 76 83 84 89
15 Texas-Pan American (TX) 389 58 74 79 87 91

Not scored, fewer than five finishers: Texas-Arlington (4), Houston (4), LSU (4), Texas-Arlington (3), LSU (3), Arkansas State (3), Arkansas State (3), Tulane (3), Central Arkansas (3), Tulane (3), TCU (2), McNeese State (2), Baylor (1), Lamar (1), Arkansas State (1), Baylor (1), SMU (1), Arkansas-Little Rock (1), SMU (1), UL-Lafayette (1), Texas State (1), TCU (1)

Rating scale ?

Results

Place Athlete Grade School Time Rating Points Actual race
1 Dominique Scott JR-3 Arkansas (AR) 1 19:43.8 130.6 1 1
2 Rachel Johnson SR-4 Baylor (TN) 1 20:04.4 128.3 2
3 Agnes Sjostrom SO-2 SMU (TX) 1 20:11.0 127.6 2 3
4 Grace Heymsfield SR-4 Arkansas (AR) 2 20:12.3 127.5 3 4
5 Cali Roper SO-2 Rice (TX) 1 20:14.0 127.3 4 5
6 Jessica Kamilos SR-4 Arkansas (AR) 3 20:16.3 127.1 5 6
7 Diane Robison JR-3 Arkansas (AR) 4 20:16.5 127.1 6 7
8 Hillary Montgomery SR-4 Texas A&M (TX) 1 20:17.2 127.0 7 8
9 Grace Fletcher SR-4 Texas A&M (TX) 2 20:19.6 126.7 8 9
10 Karis Jochen SO-2 Texas A&M (TX) 3 20:31.4 125.5 9 10
11 Shannon Klenke SR-4 Arkansas (AR) 5 20:32.9 125.4 10 11
12 Maggie Montoya SO-2 Baylor (TN) 1 20:39.0 124.8 11 12
13 Charlotte Wilson SR-4 North Texas (TX) 1 20:42.4 124.4 12 13
14 Minttu Hukka FR-1 Lamar (TX) 1 20:43.6 124.3 14
15 Shanoah Souza JR-3 SMU (TX) 2 20:45.0 124.2 13 15
16 Alex Davis SO-2 Baylor (TN) 2 20:46.6 124.0 14 16
17 Leigh Lattimore SR-4 Lamar (TX) 1 20:52.0 123.5 15 17
18 Katie Jensen SO-2 Rice (TX) 2 20:56.1 123.1 16 18
19 Katie Ruhala SO-2 Texas (TX) 1 20:56.9 123.0 17 19
20 Samantha Mohler SO-2 Arkansas (AR) 6 20:58.6 122.8 18 20
21 Madi McLellan FR-1 Rice (TX) 3 20:58.8 122.8 19 21
22 Rexi Parcells SR-4 Arkansas State (AR) 1 20:58.8 122.8 22
23 Verity Ockenden JR-3 Lamar (TX) 2 21:02.6 122.4 20 23
24 Mariah Kelly SR-4 Baylor (TN) 3 21:04.0 21 24
25 Sandie Raines SO-2 Texas (TX) 2 21:12.5 121.5 22 25
26 Gabriela Alfonzo JR-3 Texas-Arlington (TX) 1 21:16.7 121.1 26
27 Holly Archer JR-3 SMU (TX) 3 21:20.2 120.7 23 27
28 Ann Marie Dunlap FR-1 Baylor (TN) 1 21:22.7 120.5 28
29 Stephanie Wangui SR-4 UTSA (TX) 1 21:24.5 120.3 24 29
30 Melanie Stemper JR-3 SMU (TX) 1 21:28.2 120.0 30
31 Susie Kemper JR-3 North Texas (TX) 2 21:28.6 119.9 25 31
32 Samantha Ottman SO-2 Stephen F. Austin (TX) 1 21:29.1 119.9 26 32
33 Peyton Thomas SO-2 Baylor (TN) 4 21:31.8 119.7 27 33
34 Shelby Pesek JR-3 Stephen F. Austin (TX) 2 21:31.8 119.7 28 34
35 Jannika John JR-3 Lamar (TX) 3 21:32.4 119.6 29 35
36 Emma Dahl JR-3 Arkansas-Little Rock (AR) 1 21:33.3 119.5 36
37 Valerie Reina SO-2 Arkansas (AR) 7 21:33.5 119.5 30 37
38 Katie Burford SO-2 Texas (TX) 3 21:34.5 119.4 31 38
39 Karoline Skatteboe JR-3 SMU (TX) 1 21:36.0 119.3 39
40 Shauna Pali SO-2 North Texas (TX) 3 21:38.3 119.1 32 41
41 Hannah Nilsson SR-4 Texas-Arlington (TX) 2 21:38.8 119.0 42
42 Emily Perez JR-3 UTSA (TX) 2 21:38.9 119.0 33 43
43 Magdalena Escobar JR-3 North Texas (TX) 4 21:39.4 119.0 34 44
44 Gemma Bridge JR-3 McNeese State (TX) 1 21:42.2 118.7 35 45
45 Morgan Schuetz JR-3 LSU (LA) 1 21:43.4 118.6 46
46 Eleanor Wardleworth SO-2 Rice (TX) 4 21:43.5 118.6 36 47
47 Abbey Dixon JR-3 Arkansas State (AR) 1 21:44.1 118.5 48
48 Tilda Helgesson SR-4 Arkansas State (AR) 1 21:45.7 118.4 49
49 Courtney High FR-1 Stephen F. Austin (TX) 3 21:46.4 118.3 37 50
50 Brittany Innis FR-1 Stephen F. Austin (TX) 4 21:47.0 118.3 38 51
51 Andria Aguilar JR-3 LSU (LA) 2 21:47.8 118.2 52
52 Evelyn Chavez FR-1 Lamar (TX) 4 21:48.8 118.1 39 53
53 Lauren Bartels FR-1 Tulane (LA) 1 21:49.6 118.0 54
54 Connor Ward JR-3 Texas (TX) 4 21:50.0 40 55
55 Katelyn Hayward JR-3 Texas-Arlington (TX) 1 21:54.4 117.6 56
56 Ashly Wright SR-4 Texas-Arlington (TX) 3 21:57.6 117.3 57
57 Mary Beth Hamilton FR-1 Texas (TX) 5 21:58.8 117.2 41 58
58 Arin Rice FR-1 TCU (TX) 1 22:01.1 117.0 59
59 Katja Woelfl FR-1 McNeese State (TX) 2 22:02.9 116.8 42 61
60 Hannah Kay SO-2 Rice (TX) 5 22:03.4 116.8 43 62
61 Bailey Sullivan FR-1 TCU (TX) 2 22:03.7 116.8 63
62 Ashley Irwin JR-3 UL-Lafayette (LA) 1 22:08.9 116.3 64
63 Selena Sierra JR-3 Houston (TN) 1 22:09.2 116.3 65
64 Kelly Trevino SR-4 Texas State (TX) 1 22:10.8 116.2 66
65 Arnica Zitting FR-1 Arkansas State (AR) 2 22:11.6 116.1 67
66 Taylor Bohr FR-1 Stephen F. Austin (TX) 5 22:11.8 116.1 44 68
67 Samantha Young FR-1 Texas (TX) 6 22:11.8 116.1 45 69
68 Katrina Fite SO-2 Stephen F. Austin (TX) 6 22:14.3 115.8 46 70
69 Ana Moreno JR-3 Sam Houston St. (TX) 1 22:19.7 115.4 47 71
70 Megan Flanagan SO-2 Lamar (TX) 5 22:20.9 115.3 48 72
71 Madison Zimmerman FR-1 Baylor (TN) 5 22:21.8 115.2 49 73
72 Allie Schaich SR-4 Rice (TX) 6 22:22.5 115.1 50 74
73 Brigette Caruthers SO-2 Central Arkansas (AR) 1 22:25.4 114.9 75
74 Alaina Perez SR-4 Texas (TX) 7 22:27.0 114.8 51 76
75 Haley Deakins SO-2 Texas A&M (TX) 4 22:27.9 114.7 52 77
76 Danielle Avery SO-2 LSU (LA) 1 22:31.6 114.4 78
77 Gabriela Busquet JR-3 Houston Baptist (TX) 1 22:33.4 114.2 53 79
78 Regina Salinas JR-3 Texas A&M-CC (TX) 1 22:33.4 114.2 54 80
79 Corissa Storms SR-4 McNeese State (TX) 3 22:33.6 114.2 55 81
80 Heather Newberry SR-4 Arkansas State (AR) 2 22:34.1 114.2 82
81 Bridgette Kozar SO-2 Stephen F. Austin (TX) 7 22:35.9 114.0 56 84
82 Nicole Aponte JR-3 Sam Houston St. (TX) 2 22:38.2 113.8 57 85
83 Jennifer Zapata FR-1 Texas-Pan American (TX) 1 22:39.3 113.7 58 86
84 Tori Shelton FR-1 Texas-Arlington (TX) 2 22:43.8 113.3 87
85 Katie Pia SO-2 Texas A&M (TX) 5 22:47.6 113.0 59 88
86 Miranda Prado SO-2 Sam Houston St. (TX) 3 22:49.4 112.9 60 89
87 Andrea Maxwell FR-1 LSU (LA) 3 22:50.4 112.8 90
88 Olivia Olguin SO-2 Sam Houston St. (TX) 4 22:51.3 112.7 61 91
89 Danielle Avery SO-2 LSU (LA) 2 22:51.5 112.7 92
90 Amity Delaney FR-1 McNeese State (TX) 1 22:52.3 112.6 93
91 Mikayla Sonneborn JR-3 Tulane (LA) 1 22:52.9 112.6 94
92 Bailey Eller SR-4 Arkansas State (AR) 3 22:53.9 112.5 95
93 Claire Trotter JR-3 SMU (TX) 4 23:00.9 111.9 62 96
94 Alison Smegal SO-2 McNeese State (TX) 4 23:01.5 111.9 63 97
95 Louise Webb SR-4 Lamar (TX) 6 23:05.4 111.6 64 98
96 Emily-Kathryn Hoey FR-1 Tulane (LA) 2 23:06.0 111.5 99
97 Christina Moralez FR-1 North Texas (TX) 5 23:06.0 111.5 65 100
98 Julie Vanderhout SO-2 SMU (TX) 5 23:09.0 111.3 66 101
99 Katharine Smiley SO-2 Tulane (LA) 2 23:11.5 111.1 102
100 Ashley Chamberlain JR-3 Texas A&M (TX) 6 23:12.5 111.0 67 103
101 Sydney Hampton SR-4 Texas-Arlington (TX) 3 23:12.8 111.0 104
102 Kerstin Sheehan SO-2 UTSA (TX) 3 23:14.9 110.8 68 105
103 Emma Newton FR-1 Tulane (LA) 3 23:17.4 110.6 106
104 Vanessa Galindo SR-4 Texas A&M-CC (TX) 2 23:20.3 110.4 69 107
105 Anna Cozart FR-1 TCU (TX) 1 23:20.3 110.4 108
106 Laura Craig SO-2 Texas A&M (TX) 7 23:21.1 110.3 70 109
107 Grace Kohler SO-2 UTSA (TX) 4 23:23.7 110.1 71 110
108 Kaitlyn Jeter SR-4 McNeese State (TX) 2 23:26.8 109.9 111
109 Arielle Price FR-1 Houston Baptist (TX) 2 23:28.0 109.8 72 112
110 Stephanie Aguilar SO-2 Houston Baptist (TX) 3 23:29.3 109.7 73 113
111 Chelsey Roberson SR-4 Arkansas State (AR) 3 23:30.2 109.6 114
112 Amber Hawkins SO-2 Houston (TN) 2 23:31.1 109.5 115
113 Teresa Sova FR-1 Texas-Pan American (TX) 2 23:33.6 109.3 74 116
114 Tamerah Gorham FR-1 Texas-Arlington (TX) 4 23:36.5 109.1 117
115 Nina Gonzales FR-1 Sam Houston St. (TX) 5 23:39.8 108.9 75 118
116 Carrisa Pinon FR-1 Texas A&M-CC (TX) 3 23:44.8 108.5 76 119
117 Emely Morgedo FR-1 Houston (TN) 3 23:48.0 108.2 120
118 Sophie Clauss JR-3 Central Arkansas (AR) 2 23:49.1 108.2 121
119 Brianna Mendiola FR-1 UTSA (TX) 5 23:50.6 108.1 77 122
120 Lauren Haney JR-3 UTSA (TX) 6 23:54.9 107.7 78 123
121 Roxanna Vidaurri FR-1 Texas-Pan American (TX) 3 23:55.3 107.7 79 124
122 Lauren Stockton FR-1 Houston Baptist (TX) 4 23:55.6 107.7 80 125
123 Angelina Covington SR-4 McNeese State (TX) 5 23:55.8 107.7 81 126
124 Carolyn McClanahan SR-4 Houston Baptist (TX) 5 23:56.2 107.6 82 127
125 Liz Romo FR-1 Texas A&M-CC (TX) 4 24:03.4 107.1 83 128
126 Taylor Hawes FR-1 Texas A&M-CC (TX) 5 24:04.3 107.0 84 129
127 Erika Chelales FR-1 Tulane (LA) 3 24:07.8 106.8 130
128 Rebecca Little FR-1 LSU (LA) 3 24:08.0 106.8 131
129 Brittany White FR-1 North Texas (TX) 6 24:10.2 106.6 85 132
130 Danielle Avery SO-2 LSU (LA) 4 24:10.4 106.6 133
131 Kaitlyn Newton JR-3 North Texas (TX) 7 24:22.3 105.7 86 134
132 Mackenzie Illari FR-1 Houston (TN) 4 24:23.9 105.6 135
133 Savanna Antley SO-2 Texas-Pan American (TX) 4 24:29.9 105.2 87 136
134 Katie Haring FR-1 Houston Baptist (TX) 6 24:31.2 105.1 88 137
135 Jasmine Boutte SR-4 Texas A&M-CC (TX) 6 24:35.3 104.8 89 138
136 Kierstin Santana SO-2 Houston Baptist (TX) 7 24:47.6 103.9 90 139
137 Emily Carroll SR-4 Central Arkansas (AR) 3 25:06.4 102.6 140
138 Alexandra Munoz FR-1 Texas-Pan American (TX) 5 25:17.0 101.9 91 141
139 Ellen Diemert FR-1 Rice (TX) 7 25:49.2 99.8 92 142